Vancouver International Airport

CYVR · 不列颠哥伦比亚, 加拿大

罗盘
风向 的 风向 080° 溫哥華國際機場 8L/26R
风: 5 kt, 2 beaufort

5 kt

2 kt
改变
0 ft 1.000 2.000 3.000 4.000 5.000
Cloud Cloud Cloud Cloud
SCT 1.600
Cloud Cloud Cloud Cloud Cloud Cloud Cloud Cloud
OVC 3.700
METAR CYVR 010917Z 08005KT 15SM -RA SCT016 OVC037 01/01 A3017 RMK SC3SC5 SLP220

METAR 溫哥華國際機場 - CYVR/YVR

溫哥華國際機場是,加拿大中的大型机场。 该机场有3条跑道: 8L/26R, 8R/26L 和 13/31. 该领域的国际民航组织标志是CYVR 它的国际航空运输协会代码是YVR.

这份报告是针对2023年2月1日 01:17, 当地时间在溫哥華國際機場进行的。

机场观察

风向为080°,速度为5 kt。

可见度为15 mi。

有疏云,零星散落的云朵在1.600 ft的高度 和 乌云密布在3.700 ft的高度。 破损或更高的上限为3.700 ft。

当前天气为光 雨。 温度为1 °C,阵风为-3 °C。 露点为1 °C,相对湿度为100%。 海平面上的气压为30,17 inHg (QNH)。

白天

今天,太阳从07:43升起,在17:09降落。 这适用于溫哥華國際機場,世界夏令时可能有所不同。 当地时间与世界标准时间之间的时差为-8 小时。 当前,没有夏令时有效。

公司介绍

我们没有关于这个机场的公司信息。

体会

到Vliegles.nl去找飞行课程,跳伞和其他飞行体验。 浏览页面,了解溫哥華國際機場附近所有可用的活动。 你也可以使用搜索功能来寻找你所在地附近的特定飞行课程、跳伞或其他飞行体验。

跑道

Id 标题 侧风 逆风 侧风 %
8L/26R 100°-280° 2 kt 5 kt 34 %
8R/26L 100°-280° 2 kt 5 kt 34 %
13/31 142°-322° 4 kt 2 kt 88 %

逆风成分最大的方向会被突出显示,并用于横风计算。 这并不一定意味着这个方向在使用。

乌云

1.600 ft SCT 疏云,零星散落的云朵
3.700 ft OVC 乌云密布

温度 & 天气

天气 光 雨
温度 1 °C
露点 1 °C
相对湿度 100%
风寒 -3 °C
Kp-index 0 (0-9)

评论

SLP220海平面压力为30,18 inHg (30,18 inHg)
SC3SC5

白天

日出
07:43 (5:52)
中午
12:26
日落
17:09

小工具

你想在你的网站上有一个关于溫哥華國際機場的当前航空天气(METAR)的小部件吗?

显示HTML代码

我们和第三方通过cookies跟踪您在我们网站上的互联网行为。如果你继续,我们认为你同意我们的饼干政策